Portada
METAR-TAF:

METAR-TAF

Aeroports :

Amman, Jordània

latitud: 31-59N, longitud: 035-59E, altitud: 767 m

Observació

L'informe es va fer fa 3 hores i 45 minuts, a les 04:00 UTC
Vent calma
Temperatura 9°C
Humitat 93%
Pressió 1019 hPa
Visibilitat: 4000 m
boirina

METAR: OJAM 060400Z 00000KT 4000 BR NSC 09/08 Q1019 NOSIG

Hora: 09:45 (07:45 UTC)

Pronòstic

L'informe es va fer fa 3 hores i 4 minuts, a les 04:41 UTC
Pronòstic vàlid del 06 a les 06 UTC al 07 a les 12 UTC
Vent 12 kt del Oest
Visibilitat: 5000 m
Núvols disperses a una alçada de 3500 ft
calitja
Probabilitat 40%
l' 06 a les 07 UTC al 06 a les 12 UTC
Visibilitat: 4000 m
Escasses núvols a una alçada de 2500 ft, Cumulus congestus.
Cel ennuvolat a una alçada de 3000 ft
pluja

TAF: OJAM 060441Z 0606/0712 27012KT 5000 HZ SCT035 PROB40 0607/0612 4000 -RA FEW025TCU BKN030

Observacions i pronòstics meteorològics de més de 4000 aeroports (METAR i TAF).

Les estacions disponibles són els punts grocs i vermells al mapa.

Posi el ratolí al punt desitjat per veure el nom de l'estació.

Feu clic per veure les observacions i els pronòstics meteorològics.

Per canviar el mapa: feu clic els botons verds amb una creu de color negre per apropar; al botó verd amb un guió per allunyar la imatge; o en les fletxes verdes per a mapes adjacents.


METAR-TAF: